Time;durP1;ratioP1;P1;durP2;ratioP2;P2;SDS_P1;SDS_P2;PMS_P1;PMS_P2;Temp;Humidity;BMP_temperature;BMP_pressure;BME280_temperature;BME280_humidity;BME280_pressure;Samples;Min_cycle;Max_cycle;Signal;HPM_P1;HPM_P2
2023/04/12 00:00:16;;;;;;;6.17;5.20;;;;;;;;;;5114993;28;20309;-79
2023/04/12 00:02:43;;;;;;;6.77;4.87;;;;;;;;;;5112707;28;20253;-79
2023/04/12 00:05:12;;;;;;;6.73;4.87;;;;;;;;;;5102540;28;20200;-79
2023/04/12 00:07:41;;;;;;;5.27;4.70;;;;;;;;;;5113911;28;20203;-79
2023/04/12 00:10:10;;;;;;;4.87;4.47;;;;;;;;;;5113913;28;20306;-79
2023/04/12 00:12:36;;;;;;;6.27;5.13;;;;;;;;;;5097150;28;20232;-80
2023/04/12 00:15:04;;;;;;;6.80;6.07;;;;;;;;;;5104177;28;20247;-79
2023/04/12 00:17:30;;;;;;;7.50;5.40;;;;;;;;;;5113649;28;20284;-79
2023/04/12 00:19:57;;;;;;;5.23;4.73;;;;;;;;;;5103798;28;20200;-79
2023/04/12 00:22:25;;;;;;;5.57;5.07;;;;;;;;;;5097710;28;20204;-79
2023/04/12 00:24:52;;;;;;;6.17;5.10;;;;;;;;;;5113716;28;20754;-79
2023/04/12 00:27:20;;;;;;;5.27;4.80;;;;;;;;;;5099966;28;20244;-80
2023/04/12 00:29:47;;;;;;;5.93;5.40;;;;;;;;;;5113774;28;20218;-79
2023/04/12 00:32:14;;;;;;;6.27;5.67;;;;;;;;;;5108515;28;20200;-79
2023/04/12 00:34:40;;;;;;;6.73;5.07;;;;;;;;;;5093092;28;20219;-79
2023/04/12 00:37:07;;;;;;;6.17;5.57;;;;;;;;;;5106373;28;20232;-79
2023/04/12 00:39:34;;;;;;;6.73;5.40;;;;;;;;;;5104828;28;20249;-79
2023/04/12 00:42:03;;;;;;;5.53;5.03;;;;;;;;;;5113618;28;20199;-79
2023/04/12 00:44:32;;;;;;;5.60;5.03;;;;;;;;;;5113935;28;20284;-79
2023/04/12 00:46:59;;;;;;;6.80;6.03;;;;;;;;;;5113080;28;20294;-79
2023/04/12 00:49:29;;;;;;;6.23;5.63;;;;;;;;;;5113355;28;20741;-79
2023/04/12 00:51:58;;;;;;;6.53;5.80;;;;;;;;;;5100608;28;20288;-79
2023/04/12 00:54:25;;;;;;;6.83;6.17;;;;;;;;;;5111396;28;20221;-79
2023/04/12 00:56:52;;;;;;;6.30;5.70;;;;;;;;;;5092362;28;20220;-79
2023/04/12 00:59:19;;;;;;;6.73;6.13;;;;;;;;;;5093173;28;20200;-79
2023/04/12 01:01:48;;;;;;;5.53;5.03;;;;;;;;;;5101015;28;20203;-79
2023/04/12 01:04:14;;;;;;;6.37;5.57;;;;;;;;;;5111128;28;20206;-80
2023/04/12 01:06:54;;;;;;;5.73;5.20;;;;;;;;;;5092842;28;20655;-79
2023/04/12 01:09:29;;;;;;;6.57;5.70;;;;;;;;;;5092616;28;20319;-79
2023/04/12 01:12:02;;;;;;;5.53;5.07;;;;;;;;;;5092500;28;20204;-78
2023/04/12 01:14:33;;;;;;;5.97;5.37;;;;;;;;;;5111346;28;20195;-79
2023/04/12 01:17:06;;;;;;;6.07;5.57;;;;;;;;;;5100079;28;20235;-79
2023/04/12 01:19:52;;;;;;;7.10;6.17;;;;;;;;;;5099227;28;20631;-79
2023/04/12 01:22:31;;;;;;;10.83;9.27;;;;;;;;;;5096271;28;20232;-79
2023/04/12 01:25:06;;;;;;;13.03;9.47;;;;;;;;;;5092337;28;20265;-79
2023/04/12 01:27:39;;;;;;;8.67;7.07;;;;;;;;;;5097894;28;20206;-79
2023/04/12 01:30:08;;;;;;;7.87;6.37;;;;;;;;;;5112600;28;20208;-79
2023/04/12 01:32:37;;;;;;;7.80;7.00;;;;;;;;;;5112395;28;20195;-79
2023/04/12 01:35:05;;;;;;;6.53;5.80;;;;;;;;;;5098834;28;20241;-79
2023/04/12 01:37:33;;;;;;;5.87;5.27;;;;;;;;;;5112150;28;20230;-79
2023/04/12 01:40:00;;;;;;;7.70;6.50;;;;;;;;;;5096656;28;20211;-79
2023/04/12 01:42:27;;;;;;;7.87;6.20;;;;;;;;;;5100752;28;20211;-79
2023/04/12 01:44:55;;;;;;;7.43;6.73;;;;;;;;;;5112166;28;20206;-79
2023/04/12 01:47:22;;;;;;;6.90;5.60;;;;;;;;;;5111848;28;20294;-79
2023/04/12 01:49:55;;;;;;;6.13;5.50;;;;;;;;;;5099018;28;20208;-79
2023/04/12 01:52:23;;;;;;;6.87;5.47;;;;;;;;;;5112372;28;20578;-79
2023/04/12 01:54:52;;;;;;;9.73;6.63;;;;;;;;;;5098849;28;20200;-79
2023/04/12 01:57:20;;;;;;;6.20;5.60;;;;;;;;;;5100074;28;20235;-78
2023/04/12 01:59:48;;;;;;;6.10;5.50;;;;;;;;;;5091644;28;20208;-78
2023/04/12 02:02:16;;;;;;;7.80;5.93;;;;;;;;;;5104044;28;20227;-79
2023/04/12 02:04:44;;;;;;;7.07;6.27;;;;;;;;;;5098196;28;20676;-79
2023/04/12 02:07:11;;;;;;;8.13;6.67;;;;;;;;;;5097537;28;20200;-78
2023/04/12 02:09:38;;;;;;;6.97;6.23;;;;;;;;;;5097798;28;20689;-79
2023/04/12 02:12:05;;;;;;;5.93;5.43;;;;;;;;;;5099633;28;20204;-79
2023/04/12 02:14:32;;;;;;;7.20;6.50;;;;;;;;;;5105170;28;20207;-79
2023/04/12 02:17:01;;;;;;;6.23;5.63;;;;;;;;;;5090999;28;20276;-79
2023/04/12 02:19:29;;;;;;;5.43;4.90;;;;;;;;;;5111659;28;20196;-78
2023/04/12 02:21:55;;;;;;;6.90;5.53;;;;;;;;;;5098103;28;20208;-79
2023/04/12 02:24:22;;;;;;;6.13;5.20;;;;;;;;;;5098111;28;20200;-81
2023/04/12 02:26:49;;;;;;;7.37;4.90;;;;;;;;;;5097980;28;20219;-79
2023/04/12 02:29:16;;;;;;;7.03;5.60;;;;;;;;;;5111520;28;20730;-79
2023/04/12 02:31:43;;;;;;;5.30;4.90;;;;;;;;;;5111102;28;20203;-79
2023/04/12 02:34:09;;;;;;;8.07;5.50;;;;;;;;;;5111253;28;20207;-79
2023/04/12 02:36:37;;;;;;;6.00;4.90;;;;;;;;;;5097208;28;20235;-79
2023/04/12 02:39:04;;;;;;;5.63;5.03;;;;;;;;;;5091155;28;20265;-79
2023/04/12 02:41:31;;;;;;;6.70;6.03;;;;;;;;;;5105179;28;20207;-79
2023/04/12 02:43:58;;;;;;;7.70;5.10;;;;;;;;;;5110996;28;20670;-79
2023/04/12 02:46:25;;;;;;;6.30;5.70;;;;;;;;;;5097435;28;20212;-80
2023/04/12 02:48:52;;;;;;;7.20;5.00;;;;;;;;;;5098682;28;20660;-79
2023/04/12 02:51:19;;;;;;;6.03;5.07;;;;;;;;;;5111444;28;20682;-79
2023/04/12 02:53:49;;;;;;;5.83;5.33;;;;;;;;;;5102715;28;20200;-79
2023/04/12 02:56:17;;;;;;;5.43;4.93;;;;;;;;;;5092769;28;20196;-79
2023/04/12 02:58:45;;;;;;;5.23;4.73;;;;;;;;;;5110879;28;20203;-79
2023/04/12 03:01:11;;;;;;;5.83;5.30;;;;;;;;;;5097516;28;20208;-79
2023/04/12 03:03:39;;;;;;;6.20;5.20;;;;;;;;;;5111435;28;20234;-79
2023/04/12 03:06:08;;;;;;;6.00;5.40;;;;;;;;;;5097164;28;20682;-79
2023/04/12 03:08:36;;;;;;;4.27;3.87;;;;;;;;;;5101426;28;20230;-79
2023/04/12 03:11:07;;;;;;;7.07;5.20;;;;;;;;;;5107605;28;20227;-79
2023/04/12 03:13:34;;;;;;;5.37;4.87;;;;;;;;;;5100040;28;20215;-79
2023/04/12 03:16:21;;;;;;;5.20;4.60;;;;;;;;;;5104784;28;20204;-79
2023/04/12 03:18:49;;;;;;;4.63;4.10;;;;;;;;;;5093202;28;20700;-79
2023/04/12 03:21:15;;;;;;;5.20;4.70;;;;;;;;;;5114598;28;20588;-79
2023/04/12 03:23:42;;;;;;;7.13;5.13;;;;;;;;;;5110064;28;20678;-79
2023/04/12 03:26:10;;;;;;;5.30;4.40;;;;;;;;;;5094677;28;20208;-79
2023/04/12 03:28:37;;;;;;;5.80;5.30;;;;;;;;;;5094497;28;20196;-81
2023/04/12 03:31:04;;;;;;;6.33;4.53;;;;;;;;;;5103672;28;20214;-77
2023/04/12 03:33:30;;;;;;;5.07;4.43;;;;;;;;;;5112343;28;20195;-79
2023/04/12 03:35:57;;;;;;;5.17;4.67;;;;;;;;;;5107441;28;20200;-79
2023/04/12 03:38:24;;;;;;;4.80;4.33;;;;;;;;;;5114584;28;20231;-81
2023/04/12 03:40:51;;;;;;;5.93;4.63;;;;;;;;;;5114922;28;20244;-79
2023/04/12 03:43:19;;;;;;;4.63;4.23;;;;;;;;;;5101221;28;20647;-79
2023/04/12 03:45:46;;;;;;;5.33;4.83;;;;;;;;;;5105812;28;20196;-79
2023/04/12 03:48:12;;;;;;;5.57;4.70;;;;;;;;;;5099007;28;20211;-79
2023/04/12 03:50:43;;;;;;;5.47;4.97;;;;;;;;;;5109470;28;20204;-79
2023/04/12 03:53:10;;;;;;;4.87;4.47;;;;;;;;;;5103879;28;20213;-79
2023/04/12 03:55:37;;;;;;;5.13;4.53;;;;;;;;;;5106220;28;20234;-79
2023/04/12 03:58:04;;;;;;;4.90;4.30;;;;;;;;;;5107254;28;20599;-78
2023/04/12 04:00:32;;;;;;;6.33;3.83;;;;;;;;;;5101004;28;20256;-78
2023/04/12 04:03:01;;;;;;;5.73;4.20;;;;;;;;;;5102521;28;20202;-78
2023/04/12 04:05:28;;;;;;;4.30;3.90;;;;;;;;;;5093568;28;20227;-77
2023/04/12 04:07:55;;;;;;;4.43;3.57;;;;;;;;;;5095032;28;20196;-81
2023/04/12 04:10:22;;;;;;;7.13;5.10;;;;;;;;;;5107526;28;20608;-80
2023/04/12 04:12:48;;;;;;;5.60;5.20;;;;;;;;;;5099644;28;20195;-80
2023/04/12 04:15:15;;;;;;;4.57;4.17;;;;;;;;;;5102091;28;20204;-79
2023/04/12 04:17:46;;;;;;;5.77;5.23;;;;;;;;;;5093648;28;20267;-78
2023/04/12 04:20:13;;;;;;;4.47;4.07;;;;;;;;;;5095159;28;20573;-79
2023/04/12 04:22:41;;;;;;;5.63;5.10;;;;;;;;;;5095707;28;20721;-79
2023/04/12 04:25:08;;;;;;;5.07;4.60;;;;;;;;;;5106816;28;20203;-78
2023/04/12 04:27:37;;;;;;;4.00;3.70;;;;;;;;;;5092862;28;20208;-79
2023/04/12 04:30:09;;;;;;;5.17;4.37;;;;;;;;;;5108214;28;20199;-79
2023/04/12 04:32:36;;;;;;;3.73;3.17;;;;;;;;;;5112996;28;20207;-79
2023/04/12 04:35:05;;;;;;;7.00;4.60;;;;;;;;;;5098684;28;20200;-79
2023/04/12 04:37:34;;;;;;;5.97;4.23;;;;;;;;;;5104777;28;20232;-78
2023/04/12 04:40:06;;;;;;;4.30;4.00;;;;;;;;;;5106805;28;20668;-78
2023/04/12 04:42:33;;;;;;;4.43;4.03;;;;;;;;;;5102393;28;20235;-79
2023/04/12 04:45:03;;;;;;;4.13;3.67;;;;;;;;;;5100010;28;20910;-79
2023/04/12 04:47:30;;;;;;;3.63;3.10;;;;;;;;;;5103213;28;20232;-79
2023/04/12 04:49:57;;;;;;;7.70;4.70;;;;;;;;;;5109622;28;20207;-80
2023/04/12 04:52:26;;;;;;;4.93;4.43;;;;;;;;;;5102683;28;20211;-79
2023/04/12 04:54:56;;;;;;;4.23;3.83;;;;;;;;;;5106763;28;20617;-79
2023/04/12 04:57:23;;;;;;;4.53;4.13;;;;;;;;;;5104054;28;20233;-79
2023/04/12 04:59:49;;;;;;;3.80;3.50;;;;;;;;;;5108129;28;20682;-78
2023/04/12 05:02:16;;;;;;;5.20;3.97;;;;;;;;;;5092486;28;20253;-79
2023/04/12 05:04:43;;;;;;;5.47;4.93;;;;;;;;;;5092481;28;20686;-78
2023/04/12 05:07:12;;;;;;;6.57;5.97;;;;;;;;;;5105132;28;20674;-79
2023/04/12 05:09:40;;;;;;;7.43;5.60;;;;;;;;;;5106285;28;20228;-78
2023/04/12 05:12:07;;;;;;;12.47;8.13;;;;;;;;;;5104493;28;20253;-78
2023/04/12 05:14:34;;;;;;;17.30;10.90;;;;;;;;;;5093381;28;20254;-79
2023/04/12 05:17:01;;;;;;;5.43;4.87;;;;;;;;;;5092401;28;20232;-79
2023/04/12 05:19:28;;;;;;;3.87;3.43;;;;;;;;;;5092265;28;20731;-81
2023/04/12 05:21:55;;;;;;;6.73;4.90;;;;;;;;;;5092972;28;20204;-79
2023/04/12 05:24:21;;;;;;;5.10;4.60;;;;;;;;;;5092446;28;20257;-78
2023/04/12 05:26:50;;;;;;;3.83;3.50;;;;;;;;;;5105424;28;20196;-79
2023/04/12 05:29:17;;;;;;;4.20;3.80;;;;;;;;;;5099527;28;20287;-78
2023/04/12 05:31:44;;;;;;;4.57;4.13;;;;;;;;;;5098900;28;20759;-79
2023/04/12 05:34:11;;;;;;;5.00;4.43;;;;;;;;;;5105651;28;20200;-78
2023/04/12 05:36:38;;;;;;;4.63;4.23;;;;;;;;;;5092296;28;20205;-78
2023/04/12 05:39:04;;;;;;;5.30;4.80;;;;;;;;;;5100406;28;20228;-79
2023/04/12 05:41:31;;;;;;;4.90;3.90;;;;;;;;;;5112294;28;20195;-79
2023/04/12 05:43:59;;;;;;;4.30;3.80;;;;;;;;;;5104297;28;20212;-79
2023/04/12 05:46:26;;;;;;;3.20;2.90;;;;;;;;;;5093811;28;20211;-79
2023/04/12 05:48:53;;;;;;;3.83;3.47;;;;;;;;;;5112423;28;20200;-79
2023/04/12 05:51:19;;;;;;;5.70;4.73;;;;;;;;;;5110619;28;20808;-80
2023/04/12 05:53:46;;;;;;;4.50;4.10;;;;;;;;;;5091922;28;20192;-80
2023/04/12 05:56:13;;;;;;;4.93;4.50;;;;;;;;;;5106966;28;20211;-80
2023/04/12 05:58:40;;;;;;;5.23;4.73;;;;;;;;;;5102935;28;20224;-79
2023/04/12 06:01:08;;;;;;;7.50;6.13;;;;;;;;;;5094075;28;20204;-80
2023/04/12 06:03:35;;;;;;;5.70;4.87;;;;;;;;;;5102994;28;20612;-79
2023/04/12 06:06:02;;;;;;;6.33;5.50;;;;;;;;;;5105473;28;20223;-80
2023/04/12 06:08:29;;;;;;;5.83;5.33;;;;;;;;;;5091201;28;20207;-79
2023/04/12 06:10:56;;;;;;;6.70;6.00;;;;;;;;;;5091916;28;20238;-80
2023/04/12 06:13:23;;;;;;;6.23;5.50;;;;;;;;;;5091565;28;20747;-80
2023/04/12 06:15:50;;;;;;;6.90;6.27;;;;;;;;;;5091703;28;20234;-79
2023/04/12 06:18:18;;;;;;;6.53;5.37;;;;;;;;;;5091691;28;20230;-80
2023/04/12 06:20:47;;;;;;;7.23;6.07;;;;;;;;;;5104567;28;20219;-80
2023/04/12 06:23:14;;;;;;;6.17;5.57;;;;;;;;;;5102174;28;20210;-79
2023/04/12 06:25:41;;;;;;;6.17;5.60;;;;;;;;;;5094048;28;20582;-80
2023/04/12 06:28:08;;;;;;;8.07;6.90;;;;;;;;;;5101850;28;20199;-80
2023/04/12 06:30:34;;;;;;;5.50;5.00;;;;;;;;;;5093585;28;20670;-80
2023/04/12 06:33:01;;;;;;;8.37;6.27;;;;;;;;;;5102165;28;20674;-79
2023/04/12 06:35:29;;;;;;;7.10;6.40;;;;;;;;;;5111404;28;20196;-80
2023/04/12 06:37:56;;;;;;;6.30;5.70;;;;;;;;;;5111131;28;20227;-80
2023/04/12 06:40:23;;;;;;;6.20;5.60;;;;;;;;;;5106631;28;20260;-80
2023/04/12 06:42:49;;;;;;;7.07;5.27;;;;;;;;;;5102960;28;20199;-79
2023/04/12 06:45:16;;;;;;;6.77;5.70;;;;;;;;;;5097205;28;20200;-80
2023/04/12 06:47:43;;;;;;;9.07;7.60;;;;;;;;;;5111232;28;20686;-80
2023/04/12 06:50:12;;;;;;;6.53;5.93;;;;;;;;;;5097706;28;20619;-79
2023/04/12 06:52:40;;;;;;;6.87;6.17;;;;;;;;;;5110970;28;20666;-80
2023/04/12 06:55:07;;;;;;;10.80;7.03;;;;;;;;;;5101396;28;20665;-80
2023/04/12 06:57:34;;;;;;;7.33;6.67;;;;;;;;;;5102665;28;20200;-84
2023/04/12 07:00:01;;;;;;;8.07;6.13;;;;;;;;;;5114600;28;20215;-80
2023/04/12 07:02:27;;;;;;;6.47;5.87;;;;;;;;;;5102538;28;20287;-80
2023/04/12 07:04:54;;;;;;;6.40;5.80;;;;;;;;;;5108223;28;20200;-79
2023/04/12 07:07:21;;;;;;;7.80;5.33;;;;;;;;;;5094606;28;20208;-80
2023/04/12 07:09:51;;;;;;;10.17;6.10;;;;;;;;;;5094819;28;20582;-80
2023/04/12 07:12:17;;;;;;;5.67;5.10;;;;;;;;;;5094980;28;20200;-80
2023/04/12 07:14:45;;;;;;;6.77;6.17;;;;;;;;;;5102043;28;20195;-80
2023/04/12 07:17:12;;;;;;;5.90;5.13;;;;;;;;;;5113651;28;20200;-80
2023/04/12 07:19:39;;;;;;;6.37;4.50;;;;;;;;;;5102597;28;20223;-80
2023/04/12 07:22:06;;;;;;;5.93;5.43;;;;;;;;;;5113052;28;20200;-81
2023/04/12 07:24:33;;;;;;;5.70;5.23;;;;;;;;;;5103009;28;20214;-80
2023/04/12 07:27:01;;;;;;;4.90;4.50;;;;;;;;;;5114808;28;20203;-80
2023/04/12 07:29:28;;;;;;;6.33;5.73;;;;;;;;;;5105882;28;20204;-80
2023/04/12 07:31:54;;;;;;;6.10;5.60;;;;;;;;;;5108283;28;20200;-79
2023/04/12 07:34:22;;;;;;;5.37;4.87;;;;;;;;;;5094604;28;20239;-80
2023/04/12 07:36:49;;;;;;;8.13;5.73;;;;;;;;;;5096828;28;20204;-80
2023/04/12 07:39:16;;;;;;;6.37;5.13;;;;;;;;;;5105436;28;20229;-80
2023/04/12 07:41:47;;;;;;;5.07;4.57;;;;;;;;;;5094411;28;20262;-80
2023/04/12 07:44:15;;;;;;;5.30;4.80;;;;;;;;;;5104697;28;20195;-80
2023/04/12 07:46:42;;;;;;;4.70;4.20;;;;;;;;;;5100758;28;20225;-80
2023/04/12 07:49:09;;;;;;;5.60;5.10;;;;;;;;;;5114595;28;20207;-80
2023/04/12 07:51:36;;;;;;;5.77;5.10;;;;;;;;;;5100860;28;20761;-80
2023/04/12 07:54:03;;;;;;;4.60;4.20;;;;;;;;;;5102975;28;20618;-80
2023/04/12 07:56:30;;;;;;;5.47;4.97;;;;;;;;;;5099269;28;20203;-80
2023/04/12 07:58:56;;;;;;;5.43;4.90;;;;;;;;;;5102332;28;20239;-79
2023/04/12 08:01:24;;;;;;;4.73;4.23;;;;;;;;;;5094188;28;20192;-80
2023/04/12 08:03:51;;;;;;;5.57;4.27;;;;;;;;;;5106132;28;20712;-80
2023/04/12 08:06:18;;;;;;;4.40;4.00;;;;;;;;;;5114196;28;20199;-80
2023/04/12 08:08:46;;;;;;;6.63;4.20;;;;;;;;;;5114338;28;20667;-80
2023/04/12 08:11:12;;;;;;;7.43;4.20;;;;;;;;;;5114036;28;20242;-80
2023/04/12 08:13:39;;;;;;;5.70;4.33;;;;;;;;;;5114309;28;20252;-80
2023/04/12 08:16:08;;;;;;;4.40;4.00;;;;;;;;;;5099676;28;20635;-81
2023/04/12 08:18:36;;;;;;;3.80;3.50;;;;;;;;;;5102067;28;20610;-80
2023/04/12 08:21:02;;;;;;;3.83;3.53;;;;;;;;;;5107530;28;20208;-81
2023/04/12 08:23:30;;;;;;;3.13;2.93;;;;;;;;;;5093579;28;20253;-80
2023/04/12 08:26:02;;;;;;;7.13;5.20;;;;;;;;;;5107201;28;20590;-80
2023/04/12 08:28:28;;;;;;;5.57;4.60;;;;;;;;;;5093447;28;20682;-82
2023/04/12 08:30:55;;;;;;;4.90;4.17;;;;;;;;;;5106869;28;20196;-82
2023/04/12 08:33:22;;;;;;;4.03;3.60;;;;;;;;;;5106825;28;20203;-81
2023/04/12 08:35:51;;;;;;;4.07;3.63;;;;;;;;;;5093509;28;20261;-80
2023/04/12 08:38:18;;;;;;;3.37;2.97;;;;;;;;;;5093237;28;20204;-80
2023/04/12 08:40:46;;;;;;;5.47;3.87;;;;;;;;;;5092984;28;20201;-80
2023/04/12 08:43:13;;;;;;;3.30;2.97;;;;;;;;;;5106584;28;20202;-80
2023/04/12 08:45:39;;;;;;;4.13;2.57;;;;;;;;;;5093106;28;20710;-80
2023/04/12 08:48:06;;;;;;;4.23;3.83;;;;;;;;;;5106652;28;20200;-80
2023/04/12 08:50:33;;;;;;;4.03;3.10;;;;;;;;;;5102287;28;20211;-80
2023/04/12 08:53:04;;;;;;;3.23;2.90;;;;;;;;;;5113211;28;20739;-80
2023/04/12 08:55:31;;;;;;;3.07;2.47;;;;;;;;;;5113098;28;20637;-80
2023/04/12 08:57:59;;;;;;;2.20;2.10;;;;;;;;;;5099961;28;20340;-80
2023/04/12 09:00:26;;;;;;;3.10;2.23;;;;;;;;;;5103698;28;20617;-80
2023/04/12 09:02:52;;;;;;;3.10;2.80;;;;;;;;;;5106343;28;20283;-80
2023/04/12 09:05:21;;;;;;;3.80;2.47;;;;;;;;;;5092752;28;20205;-80
2023/04/12 09:07:48;;;;;;;2.87;2.67;;;;;;;;;;5110121;28;20586;-80
2023/04/12 09:10:31;;;;;;;2.67;2.20;;;;;;;;;;5102624;28;20227;-80
2023/04/12 09:12:58;;;;;;;3.10;2.60;;;;;;;;;;5093012;28;20265;-80
2023/04/12 09:15:25;;;;;;;2.10;1.93;;;;;;;;;;5105207;28;20697;-80
2023/04/12 09:18:07;;;;;;;2.93;2.07;;;;;;;;;;5099231;28;20203;-80
2023/04/12 09:20:34;;;;;;;3.03;2.70;;;;;;;;;;5111192;28;20254;-80
2023/04/12 09:23:12;;;;;;;5.97;3.00;;;;;;;;;;5092411;28;20667;-80
2023/04/12 09:25:44;;;;;;;2.57;2.37;;;;;;;;;;5092636;28;20208;-80
2023/04/12 09:28:21;;;;;;;2.80;2.60;;;;;;;;;;5102972;28;20207;-81
2023/04/12 09:30:50;;;;;;;4.23;2.30;;;;;;;;;;5093016;28;20199;-80
2023/04/12 09:33:18;;;;;;;3.13;2.83;;;;;;;;;;5104803;28;20196;-80
2023/04/12 09:35:45;;;;;;;2.47;1.90;;;;;;;;;;5098226;28;20753;-80
2023/04/12 09:38:12;;;;;;;2.30;2.10;;;;;;;;;;5112505;28;20647;-81
2023/04/12 09:40:40;;;;;;;2.13;1.90;;;;;;;;;;5092719;28;20277;-80
2023/04/12 09:43:08;;;;;;;3.13;2.10;;;;;;;;;;5105169;28;20200;-80
2023/04/12 09:45:37;;;;;;;2.07;1.93;;;;;;;;;;5092019;28;20205;-80
2023/04/12 09:48:05;;;;;;;2.13;1.90;;;;;;;;;;5093575;28;20223;-80
2023/04/12 09:50:32;;;;;;;2.50;1.70;;;;;;;;;;5103827;28;20204;-80
2023/04/12 09:53:01;;;;;;;1.70;1.60;;;;;;;;;;5104875;28;20206;-80
2023/04/12 09:55:30;;;;;;;2.20;2.00;;;;;;;;;;5091891;28;20242;-80
2023/04/12 09:58:03;;;;;;;2.07;1.97;;;;;;;;;;5105235;28;20200;-80
2023/04/12 10:00:32;;;;;;;5.17;2.40;;;;;;;;;;5101967;28;20223;-81
2023/04/12 10:03:00;;;;;;;2.30;1.50;;;;;;;;;;5094401;28;20234;-80
2023/04/12 10:05:27;;;;;;;2.07;1.87;;;;;;;;;;5091223;28;20212;-80
2023/04/12 10:07:53;;;;;;;2.30;1.87;;;;;;;;;;5105171;28;20671;-80
2023/04/12 10:10:21;;;;;;;1.37;1.27;;;;;;;;;;5091614;28;20606;-81
2023/04/12 10:12:49;;;;;;;2.30;2.07;;;;;;;;;;5105210;28;20629;-81
2023/04/12 10:15:19;;;;;;;3.43;2.07;;;;;;;;;;5102903;28;20203;-81
2023/04/12 10:17:48;;;;;;;1.77;1.60;;;;;;;;;;5106272;28;20196;-81
2023/04/12 10:20:16;;;;;;;4.13;2.00;;;;;;;;;;5104047;28;20234;-81
2023/04/12 10:22:46;;;;;;;2.10;1.97;;;;;;;;;;5105100;28;20291;-82
2023/04/12 10:25:14;;;;;;;3.03;2.30;;;;;;;;;;5091281;28;20744;-85
2023/04/12 10:27:42;;;;;;;2.57;1.93;;;;;;;;;;5110292;28;20693;-81
2023/04/12 10:30:24;;;;;;;2.20;1.97;;;;;;;;;;5110768;28;20670;-81
2023/04/12 10:33:13;;;;;;;2.23;2.00;;;;;;;;;;5091206;28;20199;-81
2023/04/12 10:35:53;;;;;;;1.70;1.60;;;;;;;;;;5091157;28;20648;-81
2023/04/12 10:38:22;;;;;;;1.77;1.67;;;;;;;;;;5092280;28;20208;-81
2023/04/12 10:41:11;;;;;;;2.57;1.70;;;;;;;;;;5111079;28;20227;-81
2023/04/12 10:43:37;;;;;;;2.77;2.30;;;;;;;;;;5092799;28;20282;-80
2023/04/12 10:46:06;;;;;;;1.80;1.70;;;;;;;;;;5103124;28;20199;-80
2023/04/12 10:48:34;;;;;;;2.03;1.87;;;;;;;;;;5105879;28;20709;-81
2023/04/12 10:51:22;;;;;;;2.13;1.90;;;;;;;;;;5103646;28;20624;-81
2023/04/12 10:53:49;;;;;;;3.13;1.73;;;;;;;;;;5099941;28;20755;-81
2023/04/12 10:56:38;;;;;;;1.97;1.80;;;;;;;;;;5111028;28;20678;-81
2023/04/12 10:59:05;;;;;;;2.03;1.80;;;;;;;;;;5111639;28;20245;-81
2023/04/12 11:01:37;;;;;;;1.77;1.67;;;;;;;;;;5091171;28;20196;-81
2023/04/12 11:04:14;;;;;;;1.97;1.80;;;;;;;;;;5104674;28;20203;-81
2023/04/12 11:06:50;;;;;;;1.97;1.80;;;;;;;;;;5091413;28;20208;-81
2023/04/12 11:09:20;;;;;;;2.57;2.10;;;;;;;;;;5104686;28;20237;-81
2023/04/12 11:11:47;;;;;;;1.60;1.50;;;;;;;;;;5101098;28;20210;-81
2023/04/12 11:14:15;;;;;;;1.73;1.63;;;;;;;;;;5097461;28;20208;-87
2023/04/12 11:17:21;;;;;;;1.80;1.70;;;;;;;;;;5101380;28;20200;-81
2023/04/12 11:19:51;;;;;;;1.70;1.60;;;;;;;;;;5091312;28;20230;-81
2023/04/12 11:22:19;;;;;;;2.00;1.80;;;;;;;;;;5093389;28;20671;-81
2023/04/12 11:24:48;;;;;;;1.70;1.60;;;;;;;;;;5111051;28;20277;-81
2023/04/12 11:27:16;;;;;;;3.40;2.00;;;;;;;;;;5094584;28;20208;-84
2023/04/12 11:29:43;;;;;;;2.03;1.83;;;;;;;;;;5101419;28;20231;-80
2023/04/12 11:32:11;;;;;;;2.00;1.83;;;;;;;;;;5098062;28;20210;-81
2023/04/12 11:34:40;;;;;;;6.37;1.70;;;;;;;;;;5100450;28;20287;-80
2023/04/12 11:37:07;;;;;;;1.93;1.73;;;;;;;;;;5095314;28;20598;-81
2023/04/12 11:39:35;;;;;;;6.87;2.63;;;;;;;;;;5101356;28;20315;-81
2023/04/12 11:42:03;;;;;;;3.00;2.57;;;;;;;;;;5108180;28;20200;-81
2023/04/12 11:44:34;;;;;;;1.63;1.53;;;;;;;;;;5094716;28;20598;-81
2023/04/12 11:47:02;;;;;;;1.90;1.50;;;;;;;;;;5100166;28;20792;-81
2023/04/12 11:49:28;;;;;;;1.90;1.77;;;;;;;;;;5101813;28;20208;-80
2023/04/12 11:52:03;;;;;;;2.17;1.90;;;;;;;;;;5114552;28;20206;-81
2023/04/12 11:54:31;;;;;;;3.33;2.27;;;;;;;;;;5101346;28;20208;-81
2023/04/12 11:56:58;;;;;;;1.30;1.30;;;;;;;;;;5107249;28;20564;-81
2023/04/12 11:59:32;;;;;;;1.60;1.50;;;;;;;;;;5108893;28;20238;-80
2023/04/12 12:01:59;;;;;;;1.63;1.30;;;;;;;;;;5114741;28;20208;-80
2023/04/12 12:04:26;;;;;;;1.60;1.50;;;;;;;;;;5114434;28;20195;-81
2023/04/12 12:06:52;;;;;;;1.70;1.60;;;;;;;;;;5114910;28;20212;-81
2023/04/12 12:09:21;;;;;;;2.07;1.50;;;;;;;;;;5114131;28;20235;-81
2023/04/12 12:11:47;;;;;;;3.07;2.17;;;;;;;;;;5114237;28;20203;-81
2023/04/12 12:14:19;;;;;;;2.13;1.40;;;;;;;;;;5114792;28;20203;-81
2023/04/12 12:16:53;;;;;;;2.13;1.37;;;;;;;;;;5103660;28;20196;-81
2023/04/12 12:19:27;;;;;;;1.33;1.23;;;;;;;;;;5094151;28;20203;-81
2023/04/12 12:21:54;;;;;;;1.93;1.83;;;;;;;;;;5093879;28;20280;-81
2023/04/12 12:24:24;;;;;;;1.20;1.20;;;;;;;;;;5107415;28;20200;-81
2023/04/12 12:26:51;;;;;;;1.23;1.10;;;;;;;;;;5107148;28;20204;-81
2023/04/12 12:29:18;;;;;;;2.83;1.10;;;;;;;;;;5114179;28;20210;-87
2023/04/12 12:31:46;;;;;;;1.30;1.20;;;;;;;;;;5113714;28;20753;-81
2023/04/12 12:34:14;;;;;;;2.83;1.30;;;;;;;;;;5101034;28;20294;-80
2023/04/12 12:36:40;;;;;;;1.20;1.20;;;;;;;;;;5099632;28;20273;-81
2023/04/12 12:39:09;;;;;;;1.70;1.53;;;;;;;;;;5093172;28;20723;-81
2023/04/12 12:41:37;;;;;;;0.90;0.90;;;;;;;;;;5093387;28;20721;-81
2023/04/12 12:44:05;;;;;;;1.40;1.30;;;;;;;;;;5093746;28;20207;-81
2023/04/12 12:46:32;;;;;;;1.40;1.30;;;;;;;;;;5092287;28;20197;-80
2023/04/12 12:48:59;;;;;;;2.90;1.97;;;;;;;;;;5102328;28;20208;-78
2023/04/12 12:51:27;;;;;;;1.80;1.60;;;;;;;;;;5095387;28;20593;-78
2023/04/12 12:53:53;;;;;;;2.00;1.90;;;;;;;;;;5092825;28;20206;-79
2023/04/12 12:56:20;;;;;;;4.43;3.13;;;;;;;;;;5092234;28;20211;-79
2023/04/12 12:58:50;;;;;;;2.30;1.80;;;;;;;;;;5103700;28;20763;-79
2023/04/12 13:01:17;;;;;;;2.87;2.07;;;;;;;;;;5110771;28;20705;-78
2023/04/12 13:03:46;;;;;;;3.40;2.10;;;;;;;;;;5102002;28;20204;-79
2023/04/12 13:06:13;;;;;;;7.10;3.83;;;;;;;;;;5105947;28;20253;-80
2023/04/12 13:08:40;;;;;;;1.93;1.83;;;;;;;;;;5092441;28;20250;-80
2023/04/12 13:11:07;;;;;;;1.90;1.60;;;;;;;;;;5110510;28;20285;-80
2023/04/12 13:13:34;;;;;;;2.03;1.60;;;;;;;;;;5101823;28;20261;-80
2023/04/12 13:16:02;;;;;;;4.93;1.90;;;;;;;;;;5110600;28;20204;-80
2023/04/12 13:18:29;;;;;;;2.47;1.77;;;;;;;;;;5101279;28;20255;-80
2023/04/12 13:20:55;;;;;;;2.33;1.77;;;;;;;;;;5105821;28;20220;-79
2023/04/12 13:23:22;;;;;;;4.60;1.87;;;;;;;;;;5104149;28;20204;-79
2023/04/12 13:25:49;;;;;;;8.07;2.33;;;;;;;;;;5112198;28;20253;-80
2023/04/12 13:28:16;;;;;;;4.90;2.90;;;;;;;;;;5100495;28;20192;-79
2023/04/12 13:30:42;;;;;;;3.43;2.50;;;;;;;;;;5111235;28;20632;-80
2023/04/12 13:33:10;;;;;;;4.83;2.57;;;;;;;;;;5112018;28;20199;-79
2023/04/12 13:35:37;;;;;;;2.63;2.43;;;;;;;;;;5092481;28;20272;-79
2023/04/12 13:38:04;;;;;;;2.57;1.93;;;;;;;;;;5091925;28;20200;-79
2023/04/12 13:40:31;;;;;;;4.63;3.90;;;;;;;;;;5097948;28;20256;-79
2023/04/12 13:42:58;;;;;;;6.30;4.00;;;;;;;;;;5099067;28;20212;-79
2023/04/12 13:45:25;;;;;;;5.00;3.77;;;;;;;;;;5105386;28;20208;-81
2023/04/12 13:47:52;;;;;;;6.33;2.90;;;;;;;;;;5104725;28;20234;-80
2023/04/12 13:50:20;;;;;;;6.33;3.10;;;;;;;;;;5098020;28;20203;-79
2023/04/12 13:52:47;;;;;;;5.23;3.50;;;;;;;;;;5112053;28;20203;-81
2023/04/12 13:55:13;;;;;;;2.70;2.50;;;;;;;;;;5112023;28;20199;-80
2023/04/12 13:57:40;;;;;;;5.27;2.93;;;;;;;;;;5098414;28;20380;-81
2023/04/12 14:00:09;;;;;;;4.73;3.30;;;;;;;;;;5098899;28;20838;-80
2023/04/12 14:02:35;;;;;;;8.90;4.30;;;;;;;;;;5110949;28;20210;-80
2023/04/12 14:05:03;;;;;;;13.63;6.20;;;;;;;;;;5111879;28;20203;-80
2023/04/12 14:07:32;;;;;;;8.93;6.23;;;;;;;;;;5110250;28;20207;-81
2023/04/12 14:10:00;;;;;;;7.33;4.40;;;;;;;;;;5100244;28;20760;-79
2023/04/12 14:12:26;;;;;;;5.07;3.83;;;;;;;;;;5096507;28;20201;-79
2023/04/12 14:14:53;;;;;;;6.07;4.13;;;;;;;;;;5091667;28;20764;-80
2023/04/12 14:17:20;;;;;;;7.47;4.37;;;;;;;;;;5091928;28;20208;-81
2023/04/12 14:19:47;;;;;;;11.13;4.60;;;;;;;;;;5100718;28;20202;-80
2023/04/12 14:22:14;;;;;;;14.10;8.83;;;;;;;;;;5095532;28;20208;-80
2023/04/12 14:24:42;;;;;;;10.97;6.90;;;;;;;;;;5100574;28;20214;-80
2023/04/12 14:27:08;;;;;;;4.27;3.80;;;;;;;;;;5097660;28;20567;-79
2023/04/12 14:29:36;;;;;;;5.30;4.60;;;;;;;;;;5101646;28;20208;-78
2023/04/12 14:32:03;;;;;;;4.10;2.63;;;;;;;;;;5108013;28;20203;-79
2023/04/12 14:34:30;;;;;;;2.53;2.20;;;;;;;;;;5111067;28;20210;-79
2023/04/12 14:36:56;;;;;;;2.33;2.17;;;;;;;;;;5110786;28;20634;-78
2023/04/12 14:39:26;;;;;;;4.40;2.47;;;;;;;;;;5100632;28;20751;-80
2023/04/12 14:41:55;;;;;;;4.43;1.80;;;;;;;;;;5107949;28;20223;-79
2023/04/12 14:44:22;;;;;;;2.90;2.27;;;;;;;;;;5100120;28;20200;-80
2023/04/12 14:46:49;;;;;;;5.10;2.20;;;;;;;;;;5104297;28;20246;-79
2023/04/12 14:49:16;;;;;;;2.97;2.07;;;;;;;;;;5091527;28;20208;-81